createdAt,value
2022-11-17T00:02:06.177Z,100.00
2022-11-17T00:04:34.367Z,100.00
2022-11-17T00:07:00.950Z,100.00
2022-11-17T00:09:27.222Z,100.00
2022-11-17T00:12:17.984Z,100.00
2022-11-17T00:14:46.813Z,100.00
2022-11-17T00:17:13.442Z,100.00
2022-11-17T00:20:00.764Z,100.00
2022-11-17T00:22:31.201Z,100.00
2022-11-17T00:24:57.497Z,100.00
2022-11-17T00:27:24.314Z,100.00
2022-11-17T00:29:50.553Z,100.00
2022-11-17T00:32:37.199Z,100.00
2022-11-17T00:35:05.316Z,100.00
2022-11-17T00:37:38.510Z,100.00
2022-11-17T00:40:05.602Z,100.00
2022-11-17T00:42:32.167Z,100.00
2022-11-17T00:44:58.332Z,100.00
2022-11-17T00:47:24.806Z,100.00
2022-11-17T00:49:50.980Z,100.00
2022-11-17T00:52:17.490Z,100.00
2022-11-17T00:54:43.730Z,100.00
2022-11-17T00:57:10.716Z,100.00
2022-11-17T00:59:36.900Z,100.00
2022-11-17T01:02:03.362Z,100.00
2022-11-17T01:04:29.584Z,100.00
2022-11-17T01:06:56.144Z,100.00
2022-11-17T01:09:23.529Z,100.00
2022-11-17T01:11:52.075Z,100.00
2022-11-17T01:14:21.987Z,100.00
2022-11-17T01:16:48.447Z,100.00
2022-11-17T01:19:15.655Z,100.00
2022-11-17T01:21:42.585Z,100.00
2022-11-17T01:24:10.796Z,100.00
2022-11-17T01:26:38.749Z,100.00
2022-11-17T01:29:06.174Z,100.00
2022-11-17T01:31:35.749Z,100.00
2022-11-17T01:34:02.366Z,100.00
2022-11-17T01:36:51.584Z,100.00
2022-11-17T01:39:17.844Z,100.00
2022-11-17T01:41:44.402Z,100.00
2022-11-17T01:44:35.749Z,100.00
2022-11-17T01:47:20.164Z,100.00
2022-11-17T01:49:48.344Z,100.00
2022-11-17T01:52:15.141Z,100.00
2022-11-17T01:54:42.790Z,100.00
2022-11-17T01:57:14.111Z,100.00
2022-11-17T01:59:45.702Z,100.00
2022-11-17T02:02:12.075Z,100.00
2022-11-17T02:04:52.983Z,100.00
2022-11-17T02:07:25.142Z,100.00
2022-11-17T02:09:55.445Z,100.00
2022-11-17T02:12:26.145Z,100.00
2022-11-17T02:14:53.894Z,100.00
2022-11-17T02:17:22.902Z,100.00
2022-11-17T02:20:35.675Z,100.00
2022-11-17T02:23:36.583Z,100.00
2022-11-17T02:26:14.696Z,100.00
2022-11-17T02:29:20.209Z,100.00
2022-11-17T02:32:18.768Z,100.00
2022-11-17T02:34:48.000Z,100.00
2022-11-17T02:37:26.230Z,100.00
2022-11-17T02:40:06.175Z,100.00
2022-11-17T02:43:13.504Z,100.00
2022-11-17T02:45:47.819Z,100.00
2022-11-17T02:48:21.603Z,100.00
2022-11-17T02:50:49.831Z,100.00
2022-11-17T02:53:17.899Z,100.00
2022-11-17T02:55:50.124Z,100.00
2022-11-17T02:58:16.348Z,100.00
2022-11-17T03:01:21.433Z,100.00
2022-11-17T03:04:38.743Z,100.00
2022-11-17T03:07:26.863Z,100.00
2022-11-17T03:10:14.617Z,100.00
2022-11-17T03:13:06.449Z,100.00
2022-11-17T03:15:48.792Z,100.00
2022-11-17T03:18:25.952Z,100.00
2022-11-17T03:21:04.818Z,100.00
2022-11-17T03:23:44.061Z,100.00
2022-11-17T03:26:15.075Z,100.00
2022-11-17T03:28:45.591Z,100.00
2022-11-17T03:31:14.541Z,100.00
2022-11-17T03:33:44.614Z,100.00
2022-11-17T03:36:23.425Z,100.00
2022-11-17T03:38:58.317Z,100.00
2022-11-17T03:41:26.760Z,100.00
2022-11-17T03:43:55.912Z,100.00
2022-11-17T03:46:26.065Z,100.00
2022-11-17T03:49:06.093Z,100.00
2022-11-17T03:51:32.816Z,100.00
2022-11-17T03:54:00.198Z,100.00
2022-11-17T03:56:43.599Z,100.00
2022-11-17T03:59:28.939Z,100.00
2022-11-17T04:01:55.756Z,100.00
2022-11-17T04:04:22.580Z,100.00
2022-11-17T04:06:52.558Z,100.00
2022-11-17T04:09:24.189Z,100.00
2022-11-17T04:12:09.552Z,100.00
2022-11-17T04:14:54.579Z,100.00
2022-11-17T04:17:20.948Z,100.00
2022-11-17T04:19:48.039Z,100.00
2022-11-17T04:22:14.365Z,100.00
2022-11-17T04:24:40.989Z,100.00
2022-11-17T04:27:26.287Z,100.00
2022-11-17T04:29:52.853Z,100.00
2022-11-17T04:32:19.335Z,100.00
2022-11-17T04:34:45.867Z,100.00
2022-11-17T04:37:16.634Z,100.00
2022-11-17T04:39:44.231Z,100.00
2022-11-17T04:42:10.582Z,100.00
2022-11-17T04:44:37.115Z,100.00
2022-11-17T04:47:03.598Z,100.00
2022-11-17T04:49:31.428Z,100.00
2022-11-17T04:51:57.614Z,100.00
2022-11-17T04:54:24.645Z,100.00
2022-11-17T04:56:52.087Z,100.00
2022-11-17T04:59:18.711Z,100.00
2022-11-17T05:01:45.733Z,100.00
2022-11-17T05:04:14.701Z,100.00
2022-11-17T05:06:43.946Z,100.00
2022-11-17T05:09:13.507Z,100.00
2022-11-17T05:11:59.035Z,100.00
2022-11-17T05:14:27.035Z,100.00
2022-11-17T05:17:09.608Z,100.00
2022-11-17T05:19:40.229Z,100.00
2022-11-17T05:22:27.042Z,100.00
2022-11-17T05:24:53.921Z,100.00
2022-11-17T05:27:21.148Z,100.00
2022-11-17T05:29:47.662Z,100.00
2022-11-17T05:32:13.971Z,100.00
2022-11-17T05:34:40.408Z,100.00
2022-11-17T05:37:06.864Z,100.00
2022-11-17T05:39:33.220Z,100.00
2022-11-17T05:41:59.420Z,100.00
2022-11-17T05:44:25.916Z,100.00
2022-11-17T05:46:52.015Z,100.00
2022-11-17T05:49:18.442Z,100.00
2022-11-17T05:51:47.446Z,100.00
2022-11-17T05:54:17.960Z,100.00
2022-11-17T05:56:52.167Z,100.00
2022-11-17T05:59:28.205Z,100.00
2022-11-17T06:02:03.483Z,100.00
2022-11-17T06:04:30.725Z,100.00
2022-11-17T06:06:59.469Z,100.00
2022-11-17T06:09:33.216Z,100.00
2022-11-17T06:12:04.280Z,100.00
2022-11-17T06:14:32.168Z,100.00
2022-11-17T06:17:05.163Z,100.00
2022-11-17T06:19:38.527Z,100.00
2022-11-17T06:22:12.282Z,100.00
2022-11-17T06:24:42.706Z,100.00
2022-11-17T06:27:11.017Z,100.00
2022-11-17T06:29:43.587Z,100.00
2022-11-17T06:32:13.576Z,100.00
2022-11-17T06:34:41.490Z,100.00
2022-11-17T06:37:07.917Z,100.00
2022-11-17T06:39:34.066Z,100.00
2022-11-17T06:42:00.449Z,100.00
2022-11-17T06:44:26.520Z,100.00
2022-11-17T06:46:52.924Z,100.00
2022-11-17T06:49:19.177Z,100.00
2022-11-17T06:51:45.855Z,100.00
2022-11-17T06:54:13.790Z,100.00
2022-11-17T06:56:40.447Z,100.00
2022-11-17T06:59:06.631Z,100.00
2022-11-17T07:01:33.168Z,100.00
2022-11-17T07:03:59.228Z,100.00
2022-11-17T07:06:25.771Z,100.00
2022-11-17T07:08:51.919Z,100.00
2022-11-17T07:11:18.504Z,100.00
2022-11-17T07:13:44.893Z,100.00
2022-11-17T07:16:22.848Z,100.00
2022-11-17T07:18:49.685Z,100.00
2022-11-17T07:21:17.195Z,100.00
2022-11-17T07:23:44.242Z,100.00
2022-11-17T07:26:11.289Z,100.00
2022-11-17T07:28:38.039Z,100.00
2022-11-17T07:31:07.261Z,100.00
2022-11-17T07:33:33.740Z,100.00
2022-11-17T07:36:11.159Z,100.00
2022-11-17T07:38:39.087Z,100.00
2022-11-17T07:41:08.034Z,100.00
2022-11-17T07:43:35.518Z,100.00
2022-11-17T07:46:10.531Z,100.00
2022-11-17T07:48:37.753Z,100.00
2022-11-17T07:51:05.165Z,100.00
2022-11-17T07:53:33.929Z,100.00
2022-11-17T07:56:08.402Z,100.00
2022-11-17T07:58:35.603Z,100.00
2022-11-17T08:01:16.692Z,100.00
2022-11-17T08:03:43.697Z,99.96
2022-11-17T08:06:10.507Z,99.41
2022-11-17T08:08:38.366Z,99.09
2022-11-17T08:11:07.603Z,98.97
2022-11-17T08:13:34.599Z,97.76
2022-11-17T08:16:01.667Z,97.44
2022-11-17T08:18:28.485Z,97.23
2022-11-17T08:21:06.601Z,97.58
2022-11-17T08:23:33.463Z,96.75
2022-11-17T08:26:01.949Z,97.81
2022-11-17T08:28:28.250Z,97.30
2022-11-17T08:30:55.268Z,97.01
2022-11-17T08:33:21.613Z,96.97
2022-11-17T08:35:48.179Z,96.70
2022-11-17T08:38:18.108Z,97.09
2022-11-17T08:40:47.131Z,97.01
2022-11-17T08:43:13.686Z,96.87
2022-11-17T08:45:42.259Z,96.58
2022-11-17T08:48:08.439Z,96.63
2022-11-17T08:50:37.859Z,95.75
2022-11-17T08:53:04.120Z,95.54
2022-11-17T08:55:30.602Z,94.89
2022-11-17T08:57:56.769Z,94.86
2022-11-17T09:00:23.520Z,94.87
2022-11-17T09:02:49.653Z,95.01
2022-11-17T09:05:16.208Z,95.17
2022-11-17T09:07:42.422Z,95.17
2022-11-17T09:10:10.347Z,95.65
2022-11-17T09:12:36.887Z,94.61
2022-11-17T09:15:04.533Z,95.01
2022-11-17T09:17:31.385Z,94.47
2022-11-17T09:19:57.791Z,94.94
2022-11-17T09:22:24.065Z,94.91
2022-11-17T09:24:50.517Z,95.13
2022-11-17T09:27:16.621Z,94.60
2022-11-17T09:29:43.050Z,94.32
2022-11-17T09:32:09.234Z,94.36
2022-11-17T09:34:35.665Z,94.56
2022-11-17T09:37:01.865Z,93.61
2022-11-17T09:39:28.340Z,94.78
2022-11-17T09:41:56.592Z,93.84
2022-11-17T09:44:47.093Z,93.96
2022-11-17T09:47:31.736Z,93.64
2022-11-17T09:50:04.069Z,94.55
2022-11-17T09:52:49.225Z,94.24
2022-11-17T09:55:45.551Z,94.80
2022-11-17T09:58:29.203Z,94.38
2022-11-17T10:00:55.679Z,94.78
2022-11-17T10:03:27.642Z,94.64
2022-11-17T10:05:54.660Z,93.53
2022-11-17T10:08:31.147Z,93.54
2022-11-17T10:10:57.641Z,93.83
2022-11-17T10:13:32.127Z,94.13
2022-11-17T10:16:04.887Z,94.24
2022-11-17T10:18:38.041Z,94.22
2022-11-17T10:21:06.443Z,93.97
2022-11-17T10:23:39.792Z,93.72
2022-11-17T10:26:12.665Z,94.38
2022-11-17T10:28:39.883Z,93.76
2022-11-17T10:31:15.203Z,94.29
2022-11-17T10:33:46.961Z,93.73
2022-11-17T10:36:25.488Z,93.70
2022-11-17T10:38:53.780Z,93.39
2022-11-17T10:41:25.053Z,93.56
2022-11-17T10:44:11.349Z,93.93
2022-11-17T10:47:02.354Z,94.04
2022-11-17T10:49:34.677Z,93.79
2022-11-17T10:52:08.613Z,94.32
2022-11-17T10:54:34.828Z,93.28
2022-11-17T10:57:04.821Z,93.65
2022-11-17T10:59:41.218Z,92.98
2022-11-17T11:02:26.249Z,94.10
2022-11-17T11:05:18.330Z,93.58
2022-11-17T11:08:18.827Z,94.00
2022-11-17T11:11:14.034Z,93.84
2022-11-17T11:14:10.309Z,93.60
2022-11-17T11:16:36.566Z,93.67
2022-11-17T11:19:08.311Z,93.63
2022-11-17T11:22:21.501Z,93.60
2022-11-17T11:24:59.930Z,93.15
2022-11-17T11:27:48.693Z,92.87
2022-11-17T11:30:17.066Z,93.49
2022-11-17T11:32:58.292Z,93.34
2022-11-17T11:35:36.190Z,93.46
2022-11-17T11:38:34.590Z,92.46
2022-11-17T11:41:23.342Z,91.48
2022-11-17T11:44:02.243Z,91.79
2022-11-17T11:46:38.163Z,92.43
2022-11-17T11:49:32.765Z,92.00
2022-11-17T11:52:00.019Z,91.41
2022-11-17T11:54:47.756Z,91.38
2022-11-17T11:57:22.006Z,91.25
2022-11-17T11:59:59.482Z,90.80
2022-11-17T12:02:50.712Z,91.55
2022-11-17T12:05:44.677Z,91.42
2022-11-17T12:08:20.128Z,91.16
2022-11-17T12:10:58.444Z,91.29
2022-11-17T12:13:25.659Z,91.21
2022-11-17T12:16:18.898Z,91.29
2022-11-17T12:18:45.028Z,91.70
2022-11-17T12:21:13.079Z,91.34
2022-11-17T12:23:57.366Z,91.57
2022-11-17T12:26:34.325Z,91.11
2022-11-17T12:29:19.199Z,91.40
2022-11-17T12:31:54.431Z,91.09
2022-11-17T12:34:30.907Z,90.40
2022-11-17T12:37:16.143Z,90.36
2022-11-17T12:40:03.054Z,90.39
2022-11-17T12:42:32.830Z,90.67
2022-11-17T12:45:00.096Z,90.37
2022-11-17T12:47:31.985Z,90.95
2022-11-17T12:50:17.313Z,90.87
2022-11-17T12:53:11.414Z,89.68
2022-11-17T12:55:40.498Z,89.91
2022-11-17T12:58:30.051Z,90.09
2022-11-17T13:01:10.940Z,90.62
2022-11-17T13:03:51.846Z,89.77
2022-11-17T13:06:36.252Z,90.08
2022-11-17T13:09:11.020Z,90.43
2022-11-17T13:11:37.456Z,90.44
2022-11-17T13:14:14.612Z,90.57
2022-11-17T13:16:47.741Z,90.37
2022-11-17T13:19:41.075Z,90.36
2022-11-17T13:22:10.368Z,90.43
2022-11-17T13:24:39.927Z,90.32
2022-11-17T13:27:26.256Z,91.42
2022-11-17T13:30:13.345Z,90.64
2022-11-17T13:32:40.995Z,90.85
2022-11-17T13:35:22.521Z,91.55
2022-11-17T13:38:10.864Z,90.88
2022-11-17T13:40:40.141Z,91.23
2022-11-17T13:43:11.416Z,91.59
2022-11-17T13:45:38.204Z,91.19
2022-11-17T13:48:04.505Z,91.30
2022-11-17T13:50:31.280Z,91.24
2022-11-17T13:53:01.590Z,90.22
2022-11-17T13:55:28.977Z,91.01
2022-11-17T13:58:04.796Z,90.61
2022-11-17T14:00:32.937Z,90.26
2022-11-17T14:03:32.905Z,90.83
2022-11-17T14:05:59.595Z,90.67
2022-11-17T14:08:31.322Z,91.36
2022-11-17T14:11:15.641Z,90.44
2022-11-17T14:13:58.315Z,91.16
2022-11-17T14:16:31.942Z,91.61
2022-11-17T14:19:04.813Z,91.09
2022-11-17T14:21:31.874Z,91.34
2022-11-17T14:24:04.858Z,92.21
2022-11-17T14:26:32.545Z,91.49
2022-11-17T14:29:01.627Z,91.98
2022-11-17T14:31:29.921Z,91.45
2022-11-17T14:33:56.359Z,90.59
2022-11-17T14:36:23.258Z,91.75
2022-11-17T14:38:49.669Z,92.02
2022-11-17T14:41:17.889Z,91.78
2022-11-17T14:43:44.617Z,91.62
2022-11-17T14:46:19.189Z,91.92
2022-11-17T14:48:45.538Z,91.71
2022-11-17T14:51:15.950Z,92.13
2022-11-17T14:53:43.777Z,91.65
2022-11-17T14:56:11.948Z,92.38
2022-11-17T14:58:38.240Z,91.97
2022-11-17T15:01:15.366Z,92.53
2022-11-17T15:03:41.529Z,92.58
2022-11-17T15:06:12.964Z,92.18
2022-11-17T15:08:41.499Z,92.38
2022-11-17T15:11:14.052Z,91.79
2022-11-17T15:13:40.134Z,91.58
2022-11-17T15:16:06.986Z,92.10
2022-11-17T15:18:33.152Z,92.51
2022-11-17T15:21:02.250Z,91.68
2022-11-17T15:23:28.378Z,91.92
2022-11-17T15:25:54.954Z,91.88
2022-11-17T15:28:23.246Z,91.82
2022-11-17T15:30:49.984Z,91.31
2022-11-17T15:33:16.083Z,91.97
2022-11-17T15:35:42.615Z,91.91
2022-11-17T15:38:08.849Z,92.03
2022-11-17T15:40:35.341Z,91.91
2022-11-17T15:43:04.958Z,91.96
2022-11-17T15:45:32.808Z,92.45
2022-11-17T15:47:59.453Z,91.91
2022-11-17T15:50:26.822Z,92.01
2022-11-17T15:53:08.363Z,91.80
2022-11-17T15:55:35.078Z,92.31
2022-11-17T15:58:01.676Z,92.21
2022-11-17T16:00:28.299Z,92.43
2022-11-17T16:02:58.569Z,91.75
2022-11-17T16:05:25.930Z,91.97
2022-11-17T16:07:52.188Z,91.84
2022-11-17T16:10:19.025Z,91.90
2022-11-17T16:12:45.795Z,91.70
2022-11-17T16:15:12.332Z,92.23
2022-11-17T16:17:38.488Z,91.89
2022-11-17T16:20:05.588Z,91.52
2022-11-17T16:22:32.048Z,91.66
2022-11-17T16:24:58.504Z,91.55
2022-11-17T16:27:24.603Z,91.89
2022-11-17T16:29:51.479Z,91.09
2022-11-17T16:32:17.731Z,91.75
2022-11-17T16:34:48.287Z,92.14
2022-11-17T16:37:14.738Z,91.42
2022-11-17T16:39:41.221Z,91.36
2022-11-17T16:42:07.470Z,91.79
2022-11-17T16:44:34.328Z,91.48
2022-11-17T16:47:00.918Z,92.04
2022-11-17T16:49:29.364Z,91.72
2022-11-17T16:51:55.525Z,91.36
2022-11-17T16:54:22.515Z,91.38
2022-11-17T16:56:48.826Z,91.98
2022-11-17T16:59:16.985Z,90.97
2022-11-17T17:01:43.831Z,91.62
2022-11-17T17:04:11.655Z,91.02
2022-11-17T17:06:42.760Z,90.97
2022-11-17T17:09:11.287Z,91.43
2022-11-17T17:11:37.661Z,91.53
2022-11-17T17:14:07.554Z,91.49
2022-11-17T17:16:35.195Z,91.16
2022-11-17T17:19:05.720Z,91.57
2022-11-17T17:21:33.105Z,91.41
2022-11-17T17:23:59.845Z,91.90
2022-11-17T17:26:28.350Z,91.93
2022-11-17T17:28:57.008Z,91.29
2022-11-17T17:31:25.017Z,91.37
2022-11-17T17:33:54.512Z,91.45
2022-11-17T17:36:23.797Z,90.75
2022-11-17T17:38:55.811Z,91.63
2022-11-17T17:41:31.054Z,91.49
2022-11-17T17:44:02.297Z,91.62
2022-11-17T17:46:30.102Z,91.85
2022-11-17T17:48:57.261Z,91.78
2022-11-17T17:51:25.127Z,91.96
2022-11-17T17:53:53.140Z,92.41
2022-11-17T17:56:20.877Z,91.30
2022-11-17T17:58:50.175Z,91.37
2022-11-17T18:01:24.095Z,91.46
2022-11-17T18:03:53.125Z,91.72
2022-11-17T18:06:21.622Z,91.46
2022-11-17T18:08:49.673Z,91.92
2022-11-17T18:11:19.007Z,92.44
2022-11-17T18:13:48.282Z,91.52
2022-11-17T18:16:40.533Z,91.86
2022-11-17T18:19:08.315Z,92.23
2022-11-17T18:21:35.257Z,92.24
2022-11-17T18:24:02.980Z,91.90
2022-11-17T18:26:34.772Z,91.66
2022-11-17T18:29:14.566Z,92.72
2022-11-17T18:31:42.151Z,91.49
2022-11-17T18:34:20.409Z,91.72
2022-11-17T18:36:47.862Z,91.80
2022-11-17T18:39:16.024Z,91.66
2022-11-17T18:41:42.976Z,91.74
2022-11-17T18:44:18.715Z,90.88
2022-11-17T18:46:45.224Z,91.54
2022-11-17T18:49:12.059Z,91.69
2022-11-17T18:51:38.607Z,91.52
2022-11-17T18:54:05.560Z,91.26
2022-11-17T18:56:35.108Z,91.60
2022-11-17T18:59:02.121Z,91.89
2022-11-17T19:01:31.558Z,91.70
2022-11-17T19:04:00.320Z,91.14
2022-11-17T19:06:26.802Z,91.40
2022-11-17T19:08:53.886Z,91.34
2022-11-17T19:11:21.981Z,91.25
2022-11-17T19:13:49.087Z,91.81
2022-11-17T19:16:24.043Z,92.26
2022-11-17T19:18:53.468Z,92.59
2022-11-17T19:21:25.389Z,92.13
2022-11-17T19:23:58.169Z,92.80
2022-11-17T19:26:27.074Z,93.20
2022-11-17T19:28:59.911Z,92.27
2022-11-17T19:31:27.569Z,92.50
2022-11-17T19:33:55.512Z,91.86
2022-11-17T19:36:24.843Z,92.54
2022-11-17T19:38:56.103Z,92.50
2022-11-17T19:41:24.134Z,93.53
2022-11-17T19:43:56.776Z,93.19
2022-11-17T19:46:24.554Z,93.08
2022-11-17T19:48:51.290Z,92.94
2022-11-17T19:51:21.835Z,93.11
2022-11-17T19:53:51.008Z,93.46
2022-11-17T19:56:18.625Z,93.19
2022-11-17T19:58:49.111Z,93.39
2022-11-17T20:01:22.056Z,93.61
2022-11-17T20:03:49.583Z,92.99
2022-11-17T20:06:22.677Z,92.88
2022-11-17T20:08:49.647Z,92.85
2022-11-17T20:11:19.023Z,92.82
2022-11-17T20:13:45.649Z,92.13
2022-11-17T20:16:19.539Z,92.51
2022-11-17T20:18:50.280Z,92.73
2022-11-17T20:21:17.130Z,92.93
2022-11-17T20:23:44.709Z,92.44
2022-11-17T20:26:13.557Z,92.19
2022-11-17T20:28:41.662Z,91.75
2022-11-17T20:31:12.969Z,92.32
2022-11-17T20:33:41.188Z,92.62
2022-11-17T20:36:10.282Z,92.37
2022-11-17T20:38:38.239Z,92.49
2022-11-17T20:41:07.949Z,92.41
2022-11-17T20:43:35.686Z,92.14
2022-11-17T20:46:03.569Z,92.27
2022-11-17T20:48:33.362Z,92.50
2022-11-17T20:51:10.291Z,92.25
2022-11-17T20:53:37.318Z,92.53
2022-11-17T20:56:05.987Z,92.85
2022-11-17T20:58:33.684Z,93.48
2022-11-17T21:01:10.629Z,93.11
2022-11-17T21:03:37.996Z,92.99
2022-11-17T21:06:04.650Z,93.42
2022-11-17T21:08:33.843Z,94.07
2022-11-17T21:11:03.266Z,94.13
2022-11-17T21:13:32.175Z,92.70
2022-11-17T21:16:03.088Z,93.03
2022-11-17T21:18:29.953Z,93.01
2022-11-17T21:20:58.685Z,93.80
2022-11-17T21:23:26.874Z,93.29
2022-11-17T21:25:53.160Z,92.61
2022-11-17T21:28:19.629Z,93.40
2022-11-17T21:30:46.030Z,93.67
2022-11-17T21:33:12.466Z,93.09
2022-11-17T21:35:38.929Z,92.99
2022-11-17T21:38:05.354Z,93.43
2022-11-17T21:40:31.775Z,92.55
2022-11-17T21:42:58.934Z,93.00
2022-11-17T21:45:25.023Z,93.33
2022-11-17T21:47:56.500Z,93.00
2022-11-17T21:50:25.505Z,93.04
2022-11-17T21:52:53.405Z,93.89
2022-11-17T21:55:19.542Z,93.22
2022-11-17T21:57:49.688Z,93.84
2022-11-17T22:00:16.446Z,93.49
2022-11-17T22:02:42.973Z,93.40
2022-11-17T22:05:09.232Z,93.67
2022-11-17T22:07:36.122Z,94.11
2022-11-17T22:10:02.699Z,93.47
2022-11-17T22:12:30.261Z,93.05
2022-11-17T22:14:56.375Z,91.85
2022-11-17T22:17:22.820Z,92.16
2022-11-17T22:19:49.219Z,93.04
2022-11-17T22:22:15.585Z,92.80
2022-11-17T22:24:46.939Z,93.46
2022-11-17T22:27:16.037Z,93.95
2022-11-17T22:29:42.152Z,93.33
2022-11-17T22:32:09.017Z,93.46
2022-11-17T22:34:35.179Z,93.32
2022-11-17T22:37:01.819Z,92.67
2022-11-17T22:39:27.942Z,92.81
2022-11-17T22:41:54.418Z,93.78
2022-11-17T22:44:20.577Z,93.14
2022-11-17T22:46:46.956Z,92.65
2022-11-17T22:49:13.169Z,92.54
2022-11-17T22:51:58.312Z,93.02
2022-11-17T22:54:24.433Z,92.80
2022-11-17T22:56:50.896Z,92.56
2022-11-17T22:59:17.176Z,92.72
2022-11-17T23:01:43.758Z,92.39
2022-11-17T23:04:11.050Z,92.23
2022-11-17T23:06:37.417Z,92.37
2022-11-17T23:09:03.723Z,91.93
2022-11-17T23:11:37.133Z,92.18
2022-11-17T23:14:07.174Z,91.58
2022-11-17T23:16:33.642Z,91.53
2022-11-17T23:18:59.755Z,91.61
2022-11-17T23:21:26.214Z,91.49
2022-11-17T23:23:52.330Z,92.35
2022-11-17T23:26:18.900Z,92.05
2022-11-17T23:28:45.050Z,92.12
2022-11-17T23:31:14.015Z,92.24
2022-11-17T23:33:42.518Z,92.78
2022-11-17T23:36:20.115Z,93.02
2022-11-17T23:38:49.954Z,93.22
2022-11-17T23:41:18.747Z,93.55
2022-11-17T23:43:45.302Z,93.82
2022-11-17T23:46:15.298Z,93.89
2022-11-17T23:48:42.699Z,92.90
2022-11-17T23:51:12.091Z,92.44
2022-11-17T23:53:38.641Z,92.94
2022-11-17T23:56:06.092Z,92.75
2022-11-17T23:58:32.735Z,92.37
